createdAt,value
2019-04-16T00:00:23.034Z,42.13
2019-04-16T00:02:54.152Z,45.70
2019-04-16T00:05:36.832Z,50.37
2019-04-16T00:08:19.354Z,51.97
2019-04-16T00:10:39.487Z,55.03
2019-04-16T00:13:15.892Z,48.67
2019-04-16T00:15:44.812Z,58.93
2019-04-16T00:18:18.363Z,58.00
2019-04-16T00:20:55.084Z,58.97
2019-04-16T00:23:41.836Z,53.57
2019-04-16T00:26:10.685Z,56.80
2019-04-16T00:28:39.476Z,67.23
2019-04-16T00:31:08.520Z,57.47
2019-04-16T00:33:39.369Z,57.43
2019-04-16T00:36:07.722Z,60.57
2019-04-16T00:38:41.007Z,64.93
2019-04-16T00:41:07.014Z,56.17
2019-04-16T00:43:37.739Z,67.53
2019-04-16T00:46:08.487Z,97.23
2019-04-16T00:48:37.162Z,101.67
2019-04-16T00:51:05.872Z,95.83
2019-04-16T00:53:36.400Z,99.23
2019-04-16T00:56:05.277Z,85.90
2019-04-16T00:58:34.036Z,80.63
2019-04-16T01:01:02.847Z,64.37
2019-04-16T01:03:31.718Z,70.13
2019-04-16T01:06:00.608Z,71.73
2019-04-16T01:08:29.416Z,74.40
2019-04-16T01:10:58.566Z,76.67
2019-04-16T01:13:27.332Z,70.70
2019-04-16T01:15:56.149Z,56.30
2019-04-16T01:18:25.042Z,65.77
2019-04-16T01:20:53.812Z,51.97
2019-04-16T01:23:22.643Z,54.23
2019-04-16T01:25:55.374Z,59.17
2019-04-16T01:28:32.786Z,57.33
2019-04-16T01:31:15.094Z,41.70
2019-04-16T01:33:50.010Z,45.60
2019-04-16T01:36:31.898Z,44.83
2019-04-16T01:39:16.011Z,40.03
2019-04-16T01:41:32.532Z,39.47
2019-04-16T01:44:01.199Z,45.20
2019-04-16T01:46:32.518Z,36.23
2019-04-16T01:49:00.433Z,34.63
2019-04-16T01:51:29.336Z,36.70
2019-04-16T01:53:58.048Z,40.13
2019-04-16T01:56:28.810Z,46.97
2019-04-16T01:58:57.280Z,33.13
2019-04-16T02:01:25.993Z,37.47
2019-04-16T02:03:54.718Z,31.47
2019-04-16T02:06:25.847Z,29.97
2019-04-16T02:08:53.531Z,33.83
2019-04-16T02:11:22.225Z,41.47
2019-04-16T02:13:50.940Z,39.57
2019-04-16T02:16:19.655Z,35.77
2019-04-16T02:18:48.431Z,38.03
2019-04-16T02:21:17.174Z,35.67
2019-04-16T02:23:48.055Z,36.60
2019-04-16T02:26:16.233Z,35.50
2019-04-16T02:28:44.872Z,36.37
2019-04-16T02:31:16.126Z,35.40
2019-04-16T02:33:44.153Z,26.23
2019-04-16T02:36:13.025Z,28.03
2019-04-16T02:38:46.476Z,29.40
2019-04-16T02:41:16.755Z,30.40
2019-04-16T02:43:45.566Z,27.93
2019-04-16T02:46:14.421Z,30.83
2019-04-16T02:48:50.022Z,28.23
2019-04-16T02:51:24.285Z,28.80
2019-04-16T02:54:03.744Z,24.90
2019-04-16T02:56:51.994Z,31.77
2019-04-16T02:59:28.849Z,30.70
2019-04-16T03:02:02.219Z,35.87
2019-04-16T03:04:32.525Z,34.60
2019-04-16T03:07:03.232Z,32.70
2019-04-16T03:09:31.719Z,36.70
2019-04-16T03:12:00.524Z,32.50
2019-04-16T03:14:30.659Z,36.57
2019-04-16T03:17:11.462Z,29.93
2019-04-16T03:19:42.752Z,30.37
2019-04-16T03:22:11.445Z,33.37
2019-04-16T03:24:41.009Z,33.60
2019-04-16T03:27:10.079Z,26.07
2019-04-16T03:29:38.875Z,29.60
2019-04-16T03:32:12.463Z,31.63
2019-04-16T03:34:37.947Z,38.23
2019-04-16T03:37:06.735Z,29.40
2019-04-16T03:39:35.533Z,34.37
2019-04-16T03:42:04.276Z,31.83
2019-04-16T03:44:33.519Z,31.77
2019-04-16T03:47:04.018Z,34.43
2019-04-16T03:49:32.961Z,29.57
2019-04-16T03:52:04.847Z,27.77
2019-04-16T03:54:31.990Z,27.87
2019-04-16T03:57:02.079Z,29.50
2019-04-16T03:59:31.346Z,30.00
2019-04-16T04:02:00.133Z,30.33
2019-04-16T04:04:29.209Z,27.93
2019-04-16T04:07:08.998Z,38.23
2019-04-16T04:12:14.864Z,28.80
2019-04-16T04:14:43.446Z,26.90
2019-04-16T04:17:12.388Z,26.70
2019-04-16T04:19:43.520Z,23.00
2019-04-16T04:22:11.529Z,28.33
2019-04-16T04:24:40.317Z,26.07
2019-04-16T04:27:13.083Z,28.40
2019-04-16T04:29:39.587Z,29.17
2019-04-16T04:32:08.259Z,23.70
2019-04-16T04:34:37.109Z,24.63
2019-04-16T04:37:05.745Z,32.53
2019-04-16T04:39:34.843Z,31.40
2019-04-16T04:42:03.850Z,31.43
2019-04-16T04:44:33.612Z,23.80
2019-04-16T04:47:03.159Z,26.73
2019-04-16T04:49:31.939Z,25.57
2019-04-16T04:52:00.795Z,19.85
2019-04-16T04:54:29.658Z,24.47
2019-04-16T04:56:59.338Z,17.12
2019-04-16T04:59:29.037Z,20.32
2019-04-16T05:01:57.862Z,19.73
2019-04-16T05:04:28.190Z,20.12
2019-04-16T05:06:58.957Z,17.50
2019-04-16T05:09:35.190Z,21.65
2019-04-16T05:12:02.444Z,17.98
2019-04-16T05:14:31.089Z,24.05
2019-04-16T05:16:59.899Z,17.60
2019-04-16T05:19:28.803Z,21.68
2019-04-16T05:21:58.258Z,19.82
2019-04-16T05:27:42.657Z,20.57
2019-04-16T05:30:11.760Z,21.00
2019-04-16T05:32:40.643Z,21.05
2019-04-16T05:35:10.794Z,24.72
2019-04-16T05:37:40.065Z,20.08
2019-04-16T05:40:10.147Z,24.55
2019-04-16T05:42:38.725Z,21.07
2019-04-16T05:45:09.328Z,19.55
2019-04-16T05:47:38.182Z,20.32
2019-04-16T05:50:07.155Z,20.68
2019-04-16T05:52:36.701Z,21.87
2019-04-16T05:55:16.845Z,26.85
2019-04-16T05:57:46.380Z,25.27
2019-04-16T06:00:19.397Z,22.67
2019-04-16T06:02:50.521Z,27.93
2019-04-16T06:05:18.717Z,22.17
2019-04-16T06:07:47.375Z,19.42
2019-04-16T06:10:18.073Z,27.87
2019-04-16T06:12:48.383Z,21.23
2019-04-16T06:15:22.247Z,17.12
2019-04-16T06:18:06.732Z,18.42
2019-04-16T06:20:43.057Z,21.27
2019-04-16T06:23:13.456Z,17.27
2019-04-16T06:25:49.372Z,19.95
2019-04-16T06:28:36.341Z,24.60
2019-04-16T06:31:10.040Z,17.23
2019-04-16T06:33:38.785Z,20.12
2019-04-16T06:36:14.563Z,18.23
2019-04-16T06:38:47.726Z,15.20
2019-04-16T06:41:19.610Z,18.90
2019-04-16T06:43:59.636Z,18.20
2019-04-16T06:46:46.530Z,12.78
2019-04-16T06:49:20.294Z,9.68
2019-04-16T06:51:53.451Z,16.07
2019-04-16T06:54:25.589Z,13.48
2019-04-16T06:57:09.612Z,10.58
2019-04-16T06:59:43.040Z,12.23
2019-04-16T07:02:20.003Z,8.53
2019-04-16T07:04:50.488Z,12.75
2019-04-16T07:07:39.717Z,7.47
2019-04-16T07:10:04.341Z,13.98
2019-04-16T07:12:37.968Z,9.33
2019-04-16T07:15:04.957Z,10.13
2019-04-16T07:17:34.526Z,9.35
2019-04-16T07:20:06.792Z,13.65
2019-04-16T07:22:35.534Z,15.30
2019-04-16T07:25:06.516Z,10.32
2019-04-16T07:30:28.227Z,6.85
2019-04-16T07:33:00.745Z,10.18
2019-04-16T07:35:33.518Z,11.18
2019-04-16T07:38:22.397Z,11.25
2019-04-16T07:40:55.832Z,9.20
2019-04-16T07:43:42.617Z,16.87
2019-04-16T07:46:30.366Z,8.13
2019-04-16T07:49:12.929Z,11.38
2019-04-16T07:51:59.631Z,11.68
2019-04-16T07:54:48.231Z,8.10
2019-04-16T07:57:16.963Z,10.18
2019-04-16T07:59:45.620Z,8.70
2019-04-16T08:02:14.452Z,7.87
2019-04-16T08:04:43.136Z,6.95
2019-04-16T08:07:13.867Z,11.03
2019-04-16T08:09:42.572Z,6.78
2019-04-16T08:12:28.702Z,6.03
2019-04-16T08:14:41.650Z,8.65
2019-04-16T08:17:10.370Z,7.50
2019-04-16T08:19:39.132Z,9.33
2019-04-16T08:22:07.718Z,5.35
2019-04-16T08:24:38.086Z,5.78
2019-04-16T08:27:09.544Z,7.15
2019-04-16T08:29:36.995Z,4.47
2019-04-16T08:32:05.922Z,5.35
2019-04-16T08:34:34.683Z,8.85
2019-04-16T08:37:03.435Z,5.72
2019-04-16T08:39:32.101Z,5.50
2019-04-16T08:42:00.812Z,4.65
2019-04-16T08:44:29.637Z,10.70
2019-04-16T08:46:59.123Z,6.22
2019-04-16T08:49:28.504Z,6.30
2019-04-16T08:51:57.275Z,6.05
2019-04-16T08:54:26.026Z,4.42
2019-04-16T08:56:54.645Z,4.58
2019-04-16T08:59:23.525Z,7.83
2019-04-16T09:01:54.384Z,12.37
2019-04-16T09:04:24.330Z,5.35
2019-04-16T09:06:53.126Z,7.95
2019-04-16T09:09:24.719Z,9.28
2019-04-16T09:11:55.708Z,9.03
2019-04-16T09:14:26.148Z,9.20
2019-04-16T09:17:02.542Z,8.23
2019-04-16T09:19:31.138Z,7.25
2019-04-16T09:21:59.860Z,8.30
2019-04-16T09:24:40.178Z,4.87
2019-04-16T09:27:21.198Z,7.85
2019-04-16T09:29:54.497Z,6.08
2019-04-16T09:32:42.675Z,5.65
2019-04-16T09:35:18.405Z,7.05
2019-04-16T09:37:47.856Z,8.78
2019-04-16T09:40:30.112Z,15.57
2019-04-16T09:43:15.730Z,6.47
2019-04-16T09:45:33.902Z,8.05
2019-04-16T09:48:03.822Z,7.25
2019-04-16T09:50:32.632Z,9.00
2019-04-16T09:53:02.070Z,7.77
2019-04-16T09:55:30.997Z,10.50
2019-04-16T09:58:06.050Z,11.57
2019-04-16T10:00:39.467Z,9.68
2019-04-16T10:03:09.884Z,7.70
2019-04-16T10:05:38.535Z,7.17
2019-04-16T10:08:09.524Z,8.63
2019-04-16T10:10:37.632Z,6.50
2019-04-16T10:13:06.299Z,9.57
2019-04-16T10:15:35.042Z,4.63
2019-04-16T10:18:03.766Z,6.30
2019-04-16T10:20:32.556Z,6.00
2019-04-16T10:23:02.898Z,5.70
2019-04-16T10:25:33.578Z,5.63
2019-04-16T10:28:04.923Z,6.37
2019-04-16T10:30:38.759Z,5.73
2019-04-16T10:33:07.601Z,6.07
2019-04-16T10:35:36.440Z,10.93
2019-04-16T10:38:06.835Z,4.10
2019-04-16T10:40:37.213Z,4.20
2019-04-16T10:43:20.075Z,8.70
2019-04-16T10:45:53.580Z,5.47
2019-04-16T10:48:35.921Z,5.90
2019-04-16T10:51:09.350Z,6.97
2019-04-16T10:53:42.399Z,6.27
2019-04-16T10:56:20.716Z,6.47
2019-04-16T10:59:02.660Z,4.90
2019-04-16T11:01:35.158Z,8.00
2019-04-16T11:04:16.805Z,7.90
2019-04-16T11:06:49.955Z,6.10
2019-04-16T11:09:19.013Z,8.13
2019-04-16T11:11:47.887Z,7.83
2019-04-16T11:14:16.677Z,6.30
2019-04-16T11:16:47.165Z,6.33
2019-04-16T11:19:16.028Z,8.00
2019-04-16T11:21:44.768Z,4.50
2019-04-16T11:24:13.806Z,8.77
2019-04-16T11:26:44.379Z,6.97
2019-04-16T11:29:13.171Z,9.20
2019-04-16T11:31:41.984Z,6.93
2019-04-16T11:34:11.709Z,6.00
2019-04-16T11:36:41.946Z,5.20
2019-04-16T11:39:11.128Z,5.00
2019-04-16T11:41:42.293Z,5.37
2019-04-16T11:44:15.643Z,3.60
2019-04-16T11:46:41.439Z,3.87
2019-04-16T11:49:10.243Z,6.07
2019-04-16T11:51:39.124Z,8.80
2019-04-16T11:54:11.216Z,5.73
2019-04-16T11:56:38.304Z,5.47
2019-04-16T11:59:07.112Z,7.43
2019-04-16T12:01:37.583Z,8.13
2019-04-16T12:04:14.561Z,10.20
2019-04-16T12:06:51.677Z,5.70
2019-04-16T12:09:31.352Z,10.47
2019-04-16T12:12:04.672Z,8.80
2019-04-16T12:14:35.164Z,6.00
2019-04-16T12:17:06.107Z,7.90
2019-04-16T12:19:49.154Z,8.57
2019-04-16T12:22:19.620Z,7.33
2019-04-16T12:24:49.971Z,6.93
2019-04-16T12:27:20.551Z,15.17
2019-04-16T12:29:50.857Z,10.47
2019-04-16T12:32:26.837Z,11.60
2019-04-16T12:35:10.933Z,9.53
2019-04-16T12:37:57.755Z,10.27
2019-04-16T12:40:30.503Z,7.97
2019-04-16T12:43:14.683Z,5.83
2019-04-16T12:45:53.771Z,8.13
2019-04-16T12:48:27.225Z,6.83
2019-04-16T12:51:06.641Z,7.50
2019-04-16T12:53:37.042Z,8.27
2019-04-16T12:56:13.209Z,9.87
2019-04-16T12:58:50.685Z,5.47
2019-04-16T13:01:36.488Z,6.83
2019-04-16T13:04:23.596Z,8.27
2019-04-16T13:06:59.939Z,8.07
2019-04-16T13:09:33.294Z,7.67
2019-04-16T13:12:12.790Z,6.27
2019-04-16T13:15:01.115Z,6.60
2019-04-16T13:17:39.242Z,4.93
2019-04-16T13:20:15.905Z,7.93
2019-04-16T13:22:49.225Z,10.50
2019-04-16T13:25:19.700Z,7.57
2019-04-16T13:27:50.860Z,23.83
2019-04-16T13:30:20.015Z,7.07
2019-04-16T13:32:49.098Z,11.57
2019-04-16T13:35:18.056Z,10.57
2019-04-16T13:37:46.760Z,7.60
2019-04-16T13:40:17.797Z,12.03
2019-04-16T13:42:46.648Z,10.53
2019-04-16T13:45:27.027Z,14.87
2019-04-16T13:47:55.612Z,9.43
2019-04-16T13:50:28.539Z,10.37
2019-04-16T13:53:04.900Z,9.10
2019-04-16T13:55:49.460Z,9.13
2019-04-16T13:58:34.495Z,10.00
2019-04-16T14:01:14.034Z,11.40
2019-04-16T14:03:42.977Z,9.67
2019-04-16T14:06:11.919Z,8.73
2019-04-16T14:08:40.636Z,9.97
2019-04-16T14:11:09.624Z,10.13
2019-04-16T14:13:38.516Z,8.47
2019-04-16T14:16:12.705Z,14.30
2019-04-16T14:18:40.186Z,15.03
2019-04-16T14:21:09.153Z,14.90
2019-04-16T14:23:39.324Z,10.37
2019-04-16T14:26:08.303Z,13.13
2019-04-16T14:28:51.174Z,14.17
2019-04-16T14:31:07.827Z,12.40
2019-04-16T14:33:43.963Z,14.00
2019-04-16T14:36:13.555Z,11.90
2019-04-16T14:38:52.822Z,16.13
2019-04-16T14:41:21.565Z,12.73
2019-04-16T14:44:08.164Z,12.77
2019-04-16T14:46:37.056Z,15.90
2019-04-16T14:49:05.870Z,14.80
2019-04-16T14:51:34.648Z,10.80
2019-04-16T14:54:07.953Z,12.47
2019-04-16T14:56:38.313Z,16.60
2019-04-16T14:59:08.698Z,14.97
2019-04-16T15:01:38.981Z,15.23
2019-04-16T15:04:17.957Z,13.43
2019-04-16T15:06:52.799Z,16.87
2019-04-16T15:09:29.168Z,17.67
2019-04-16T15:12:08.707Z,15.50
2019-04-16T15:14:48.699Z,14.87
2019-04-16T15:17:22.026Z,16.33
2019-04-16T15:20:09.096Z,16.00
2019-04-16T15:22:42.422Z,15.97
2019-04-16T15:25:15.293Z,18.80
2019-04-16T15:27:59.438Z,16.97
2019-04-16T15:30:46.150Z,17.47
2019-04-16T15:33:35.788Z,20.63
2019-04-16T15:36:04.976Z,18.27
2019-04-16T15:38:44.449Z,20.67
2019-04-16T15:41:17.483Z,16.40
2019-04-16T15:44:04.966Z,17.43
2019-04-16T15:46:51.481Z,15.10
2019-04-16T15:49:39.986Z,18.90
2019-04-16T15:52:13.077Z,22.20
2019-04-16T15:54:49.310Z,18.43
2019-04-16T15:57:31.866Z,20.90
2019-04-16T16:00:08.331Z,15.67
2019-04-16T16:02:39.082Z,18.87
2019-04-16T16:05:09.864Z,19.43
2019-04-16T16:07:40.261Z,18.67
2019-04-16T16:10:17.982Z,23.10
2019-04-16T16:12:50.820Z,20.60
2019-04-16T16:15:19.294Z,18.57
2019-04-16T16:17:48.232Z,20.43
2019-04-16T16:20:17.079Z,16.77
2019-04-16T16:22:45.855Z,17.47
2019-04-16T16:25:14.706Z,18.97
2019-04-16T16:27:46.949Z,20.13
2019-04-16T16:30:18.699Z,21.35
2019-04-16T16:32:47.457Z,22.70
2019-04-16T16:35:17.742Z,23.10
2019-04-16T16:37:46.796Z,18.30
2019-04-16T16:40:16.159Z,23.77
2019-04-16T16:43:10.171Z,21.80
2019-04-16T16:45:44.684Z,20.27
2019-04-16T16:48:23.202Z,20.70
2019-04-16T16:50:53.022Z,20.93
2019-04-16T16:53:23.736Z,21.67
2019-04-16T16:55:53.058Z,23.67
2019-04-16T16:58:26.348Z,24.83
2019-04-16T17:01:14.047Z,21.63
2019-04-16T17:03:53.874Z,22.77
2019-04-16T17:06:24.420Z,24.07
2019-04-16T17:08:53.233Z,22.97
2019-04-16T17:11:22.228Z,24.50
2019-04-16T17:13:51.183Z,24.17
2019-04-16T17:16:26.359Z,19.77
2019-04-16T17:18:55.210Z,24.53
2019-04-16T17:21:24.098Z,24.40
2019-04-16T17:23:53.053Z,28.00
2019-04-16T17:26:21.874Z,23.37
2019-04-16T17:28:50.509Z,22.93
2019-04-16T17:31:19.320Z,25.50
2019-04-16T17:33:48.172Z,25.07
2019-04-16T17:36:16.931Z,25.90
2019-04-16T17:38:45.760Z,22.57
2019-04-16T17:41:16.210Z,23.43
2019-04-16T17:44:04.016Z,28.00
2019-04-16T17:46:34.663Z,24.47
2019-04-16T17:49:05.178Z,28.00
2019-04-16T17:51:38.385Z,26.03
2019-04-16T17:54:08.891Z,23.27
2019-04-16T17:56:39.328Z,26.90
2019-04-16T17:59:15.652Z,26.07
2019-04-16T18:01:54.620Z,25.80
2019-04-16T18:04:28.089Z,24.43
2019-04-16T18:06:58.566Z,29.87
2019-04-16T18:09:28.949Z,28.87
2019-04-16T18:12:16.920Z,28.33
2019-04-16T18:15:08.864Z,27.13
2019-04-16T18:17:46.874Z,27.90
2019-04-16T18:20:27.190Z,24.33
2019-04-16T18:23:03.276Z,28.13
2019-04-16T18:25:54.912Z,25.70
2019-04-16T18:28:30.116Z,32.40
2019-04-16T18:31:16.824Z,26.70
2019-04-16T18:34:05.152Z,24.93
2019-04-16T18:36:34.562Z,26.70
2019-04-16T18:39:37.221Z,23.23
2019-04-16T18:41:59.932Z,25.60
2019-04-16T18:44:38.361Z,29.37
2019-04-16T18:47:20.918Z,22.60
2019-04-16T18:49:53.560Z,27.30
2019-04-16T18:52:25.325Z,26.07
2019-04-16T18:54:54.192Z,18.50
2019-04-16T18:57:23.146Z,24.40
2019-04-16T18:59:52.490Z,20.63
2019-04-16T19:02:25.865Z,21.30
2019-04-16T19:04:54.692Z,24.67
2019-04-16T19:07:30.576Z,21.40
2019-04-16T19:09:59.021Z,24.80
2019-04-16T19:12:27.612Z,21.07
2019-04-16T19:14:56.737Z,22.13
2019-04-16T19:17:25.672Z,22.43
2019-04-16T19:19:54.481Z,18.87
2019-04-16T19:22:23.339Z,18.03
2019-04-16T19:24:52.406Z,21.10
2019-04-16T19:27:21.360Z,23.83
2019-04-16T19:29:50.112Z,21.33
2019-04-16T19:32:19.012Z,17.20
2019-04-16T19:34:47.888Z,21.80
2019-04-16T19:37:16.698Z,23.93
2019-04-16T19:39:46.649Z,20.23
2019-04-16T19:42:16.060Z,25.60
2019-04-16T19:44:44.763Z,29.17
2019-04-16T19:47:13.466Z,31.07
2019-04-16T19:49:42.354Z,35.10
2019-04-16T19:52:14.338Z,35.00
2019-04-16T19:54:45.095Z,40.07
2019-04-16T19:57:14.195Z,39.50
2019-04-16T19:59:46.336Z,38.97
2019-04-16T20:02:13.610Z,34.63
2019-04-16T20:04:44.534Z,33.63
2019-04-16T20:07:13.302Z,34.83
2019-04-16T20:09:42.048Z,32.47
2019-04-16T20:12:11.049Z,32.33
2019-04-16T20:14:39.833Z,30.17
2019-04-16T20:17:08.618Z,26.33
2019-04-16T20:19:40.425Z,27.17
2019-04-16T20:22:09.175Z,23.70
2019-04-16T20:24:38.103Z,24.13
2019-04-16T20:27:07.089Z,27.87
2019-04-16T20:29:35.927Z,24.50
2019-04-16T20:32:04.681Z,27.07
2019-04-16T20:34:33.575Z,26.17
2019-04-16T20:37:02.250Z,26.57
2019-04-16T20:39:30.985Z,26.17
2019-04-16T20:42:00.157Z,27.43
2019-04-16T20:44:29.179Z,23.67
2019-04-16T20:46:58.581Z,27.87
2019-04-16T20:49:28.274Z,24.47
2019-04-16T20:52:00.548Z,26.93
2019-04-16T20:54:27.354Z,32.57
2019-04-16T20:56:56.145Z,26.77
2019-04-16T20:59:25.023Z,23.97
2019-04-16T21:01:54.084Z,24.43
2019-04-16T21:04:22.971Z,25.67
2019-04-16T21:06:51.656Z,23.20
2019-04-16T21:09:20.432Z,21.73
2019-04-16T21:11:52.576Z,25.70
2019-04-16T21:14:21.808Z,26.13
2019-04-16T21:16:50.120Z,19.53
2019-04-16T21:19:23.279Z,28.33
2019-04-16T21:21:49.291Z,23.77
2019-04-16T21:24:18.069Z,21.17
2019-04-16T21:26:50.988Z,21.43
2019-04-16T21:29:25.870Z,25.83
2019-04-16T21:31:56.662Z,25.50
2019-04-16T21:34:30.177Z,22.27
2019-04-16T21:37:16.951Z,25.17
2019-04-16T21:39:51.131Z,23.60
2019-04-16T21:42:20.681Z,24.07
2019-04-16T21:44:49.408Z,21.43
2019-04-16T21:47:23.133Z,25.23
2019-04-16T21:49:48.671Z,23.17
2019-04-16T21:52:17.558Z,22.20
2019-04-16T21:54:46.205Z,26.73
2019-04-16T21:57:14.926Z,22.67
2019-04-16T21:59:43.918Z,29.73
2019-04-16T22:02:20.649Z,22.70
2019-04-16T22:04:49.391Z,24.23
2019-04-16T22:07:18.153Z,24.17
2019-04-16T22:09:47.075Z,23.97
2019-04-16T22:12:16.322Z,26.13
2019-04-16T22:14:45.236Z,28.37
2019-04-16T22:17:13.990Z,26.50
2019-04-16T22:19:54.017Z,24.60
2019-04-16T22:22:14.745Z,27.53
2019-04-16T22:24:43.719Z,26.07
2019-04-16T22:27:12.628Z,26.63
2019-04-16T22:29:41.304Z,25.10
2019-04-16T22:32:10.057Z,24.70
2019-04-16T22:34:38.877Z,29.87
2019-04-16T22:37:07.654Z,27.30
2019-04-16T22:39:43.966Z,29.33
2019-04-16T22:42:17.323Z,27.23
2019-04-16T22:44:47.682Z,24.23
2019-04-16T22:47:18.043Z,25.70
2019-04-16T22:49:46.655Z,28.33
2019-04-16T22:52:15.328Z,24.40
2019-04-16T22:54:44.253Z,27.40
2019-04-16T22:57:13.970Z,25.43
2019-04-16T22:59:42.713Z,24.40
2019-04-16T23:02:13.821Z,22.37
2019-04-16T23:04:44.106Z,26.13
2019-04-16T23:07:12.933Z,30.17
2019-04-16T23:09:41.838Z,30.53
2019-04-16T23:12:12.441Z,24.10
2019-04-16T23:14:48.193Z,25.23
2019-04-16T23:17:17.534Z,25.00
2019-04-16T23:19:51.727Z,21.90
2019-04-16T23:22:20.645Z,28.60
2019-04-16T23:24:51.808Z,24.07
2019-04-16T23:27:19.845Z,25.10
2019-04-16T23:29:48.538Z,22.17
2019-04-16T23:32:17.127Z,23.37
2019-04-16T23:34:45.912Z,22.70
2019-04-16T23:37:14.683Z,23.97
2019-04-16T23:39:43.665Z,20.50
2019-04-16T23:42:12.431Z,21.73
2019-04-16T23:44:42.881Z,22.37
2019-04-16T23:47:19.481Z,22.70
2019-04-16T23:49:49.891Z,23.67
2019-04-16T23:52:22.725Z,21.30
2019-04-16T23:54:59.289Z,23.47
2019-04-16T23:57:39.082Z,26.00
